Terminal Aerodrome Forecast
Issued by NWS

Home | Current Version | Previous Version | Text Only | Print | Product List | Glossary On
Versions: 1 2 3 4 5 6 7 8 9 10 11 12 13 14 15 16 17 18 19 20 21 22 23 24 25 26 27 28 29 30
000
FTUS43 KDVN 221740
TAFBRL
TAF
KBRL 221740Z 2218/2318 34007KT 4SM BR SCT005 BKN050
      TEMPO 2218/2221 BKN005
     FM222100 35008KT 5SM BR BKN008
     FM230800 33006KT 2SM BR OVC005
     FM231600 31007KT 4SM BR OVC010=

USA.gov is the U.S. government's official web portal to all federal, state and local government web resources and services.